CheckWX is a tool to help pilots better visualize weather data.  It is not intended as a substitute for an official pre-flight weather briefing.

06:30:32 UTC

KEYE METAR
Eagle Creek Airpark
Indianapolis, Indiana, USA
Current

38 mins ago

KEYE 230553Z AUTO 00000KT 10SM BKN080 BKN100 18/09 A2997 RMK AO2 SLP145 T01780094 10233 20150 56008
Observed
Apr-23 @ 05:53 UTC
Visibility
10 SM
Flight Rules
VFR
Cloud Levels
  • Broken at 8,000' AGL
  • Broken at 10,000' AGL
Temperature
18°C / 64°F
Dewpoint
C / 48°F
Humidity
56%
Altimeter
29.97" Hg
Pressure
1014.92 hPa
Previous

2 hours ago

KEYE 230453Z AUTO 00000KT 10SM SCT100 17/09 A2998 RMK AO2 SLP149 T01670089 402560067
Observed
Apr-23 @ 04:53 UTC
Visibility
10 SM
Flight Rules
VFR
Cloud Levels
  • Scattered at 10,000' AGL
Temperature
17°C / 63°F
Dewpoint
C / 48°F
Humidity
59%
Altimeter
29.98" Hg
Pressure
1015.22 hPa
Previous

3 hours ago

KEYE 230353Z AUTO 14005KT 10SM FEW100 18/09 A2998 RMK AO2 SLP149 T01780089
Observed
Apr-23 @ 03:53 UTC
Wind
  • 140° at 5 KTS
Visibility
10 SM
Flight Rules
VFR
Cloud Levels
  • Few at 10,000' AGL
Temperature
18°C / 64°F
Dewpoint
C / 48°F
Humidity
56%
Altimeter
29.98" Hg
Pressure
1015.22 hPa